createdAt,value
2022-12-19T00:00:02.996Z,103.10
2022-12-19T00:02:30.336Z,91.43
2022-12-19T00:04:58.027Z,100.30
2022-12-19T00:07:25.249Z,92.90
2022-12-19T00:09:52.376Z,103.87
2022-12-19T00:12:19.500Z,100.67
2022-12-19T00:14:47.702Z,95.07
2022-12-19T00:17:14.841Z,86.47
2022-12-19T00:19:41.949Z,99.07
2022-12-19T00:22:11.305Z,96.63
2022-12-19T00:24:38.612Z,97.80
2022-12-19T00:27:05.687Z,93.47
2022-12-19T00:29:32.749Z,99.13
2022-12-19T00:31:59.853Z,102.30
2022-12-19T00:34:27.027Z,100.97
2022-12-19T00:36:54.213Z,110.53
2022-12-19T00:39:21.313Z,100.47
2022-12-19T00:41:48.401Z,99.77
2022-12-19T00:44:15.471Z,107.67
2022-12-19T00:46:43.044Z,93.50
2022-12-19T00:49:11.732Z,98.50
2022-12-19T00:51:39.052Z,102.80
2022-12-19T00:54:06.714Z,93.87
2022-12-19T00:56:37.924Z,99.97
2022-12-19T00:59:05.692Z,105.47
2022-12-19T01:01:34.585Z,89.50
2022-12-19T01:04:27.793Z,96.47
2022-12-19T01:06:49.920Z,91.40
2022-12-19T01:09:18.156Z,99.20
2022-12-19T01:12:14.503Z,92.10
2022-12-19T01:14:41.697Z,92.47
2022-12-19T01:17:08.753Z,91.40
2022-12-19T01:19:41.937Z,92.33
2022-12-19T01:22:10.994Z,77.10
2022-12-19T01:24:38.167Z,89.83
2022-12-19T01:27:05.291Z,91.27
2022-12-19T01:29:33.490Z,90.07
2022-12-19T01:32:02.693Z,82.53
2022-12-19T01:34:29.910Z,90.00
2022-12-19T01:36:57.039Z,94.10
2022-12-19T01:39:24.192Z,96.97
2022-12-19T01:41:54.017Z,99.00
2022-12-19T01:44:21.083Z,94.10
2022-12-19T01:46:53.485Z,102.03
2022-12-19T01:49:26.634Z,92.13
2022-12-19T01:51:56.600Z,93.30
2022-12-19T01:54:27.059Z,85.13
2022-12-19T01:56:56.054Z,82.53
2022-12-19T01:59:30.229Z,85.90
2022-12-19T02:02:00.947Z,84.47
2022-12-19T02:04:31.965Z,84.77
2022-12-19T02:07:01.038Z,89.40
2022-12-19T02:09:42.830Z,86.30
2022-12-19T02:12:09.949Z,82.97
2022-12-19T02:14:37.168Z,91.73
2022-12-19T02:17:13.529Z,84.87
2022-12-19T02:19:59.209Z,82.30
2022-12-19T02:22:26.286Z,76.50
2022-12-19T02:25:14.346Z,89.20
2022-12-19T02:27:59.971Z,83.17
2022-12-19T02:30:45.862Z,78.83
2022-12-19T02:33:30.575Z,81.37
2022-12-19T02:36:00.547Z,87.93
2022-12-19T02:38:42.735Z,76.13
2022-12-19T02:41:14.067Z,84.90
2022-12-19T02:43:43.124Z,81.83
2022-12-19T02:46:10.641Z,94.37
2022-12-19T02:48:37.938Z,80.47
2022-12-19T02:51:05.287Z,82.07
2022-12-19T02:53:32.491Z,90.53
2022-12-19T02:56:10.306Z,88.53
2022-12-19T02:58:44.340Z,90.17
2022-12-19T03:01:18.502Z,91.73
2022-12-19T03:04:23.598Z,81.77
2022-12-19T03:06:54.577Z,84.13
2022-12-19T03:09:28.438Z,81.07
2022-12-19T03:11:59.956Z,100.17
2022-12-19T03:14:27.549Z,83.87
2022-12-19T03:16:54.778Z,83.30
2022-12-19T03:19:22.059Z,91.33
2022-12-19T03:21:49.774Z,87.17
2022-12-19T03:24:18.256Z,85.33
2022-12-19T03:26:54.307Z,82.30
2022-12-19T03:29:32.162Z,83.87
2022-12-19T03:32:01.579Z,94.07
2022-12-19T03:34:48.954Z,80.50
2022-12-19T03:37:18.481Z,84.17
2022-12-19T03:39:49.618Z,87.30
2022-12-19T03:42:36.747Z,94.33
2022-12-19T03:45:05.139Z,88.80
2022-12-19T03:47:36.112Z,94.27
2022-12-19T03:50:03.874Z,86.13
2022-12-19T03:52:42.400Z,89.70
2022-12-19T03:55:12.530Z,88.57
2022-12-19T03:57:45.255Z,81.70
2022-12-19T04:00:13.995Z,78.37
2022-12-19T04:02:44.627Z,99.67
2022-12-19T04:05:13.778Z,88.27
2022-12-19T04:07:42.197Z,94.10
2022-12-19T04:10:11.471Z,82.37
2022-12-19T04:12:41.436Z,84.33
2022-12-19T04:15:09.253Z,83.57
2022-12-19T04:17:57.142Z,97.20
2022-12-19T04:20:26.892Z,83.03
2022-12-19T04:22:54.430Z,88.70
2022-12-19T04:25:29.378Z,85.70
2022-12-19T04:27:59.551Z,95.63
2022-12-19T04:30:27.292Z,91.43
2022-12-19T04:32:54.641Z,95.97
2022-12-19T04:35:21.789Z,85.20
2022-12-19T04:37:48.861Z,81.97
2022-12-19T04:40:16.270Z,78.43
2022-12-19T04:42:43.416Z,84.90
2022-12-19T04:45:10.689Z,81.93
2022-12-19T04:47:37.894Z,85.83
2022-12-19T04:50:05.777Z,94.90
2022-12-19T04:52:32.852Z,77.57
2022-12-19T04:54:59.981Z,87.67
2022-12-19T04:57:29.579Z,88.43
2022-12-19T04:59:56.714Z,80.20
2022-12-19T05:02:24.682Z,76.60
2022-12-19T05:04:52.002Z,84.97
2022-12-19T05:07:19.166Z,82.97
2022-12-19T05:09:46.232Z,83.10
2022-12-19T05:12:13.339Z,91.50
2022-12-19T05:14:40.441Z,94.80
2022-12-19T05:17:07.572Z,79.67
2022-12-19T05:19:34.646Z,76.33
2022-12-19T05:22:01.728Z,70.07
2022-12-19T05:24:29.315Z,72.77
2022-12-19T05:26:56.413Z,74.80
2022-12-19T05:29:23.506Z,76.60
2022-12-19T05:31:50.695Z,85.77
2022-12-19T05:34:17.813Z,78.80
2022-12-19T05:36:44.990Z,95.53
2022-12-19T05:39:12.084Z,72.77
2022-12-19T05:41:39.190Z,69.63
2022-12-19T05:44:07.486Z,69.33
2022-12-19T05:46:34.660Z,71.97
2022-12-19T05:49:01.818Z,74.63
2022-12-19T05:51:29.349Z,74.27
2022-12-19T05:53:56.442Z,84.37
2022-12-19T05:56:24.055Z,57.43
2022-12-19T05:58:51.629Z,69.27
2022-12-19T06:01:23.038Z,78.23
2022-12-19T06:03:50.452Z,72.17
2022-12-19T06:06:19.423Z,60.73
2022-12-19T06:08:46.643Z,86.10
2022-12-19T06:11:14.143Z,61.37
2022-12-19T06:13:41.733Z,67.00
2022-12-19T06:16:13.521Z,67.17
2022-12-19T06:18:44.502Z,69.70
2022-12-19T06:21:14.512Z,69.77
2022-12-19T06:23:41.768Z,70.03
2022-12-19T06:26:11.132Z,72.47
2022-12-19T06:28:41.634Z,78.90
2022-12-19T06:31:08.820Z,71.40
2022-12-19T06:33:35.961Z,86.67
2022-12-19T06:36:04.194Z,62.73
2022-12-19T06:38:31.867Z,63.57
2022-12-19T06:41:17.704Z,56.90
2022-12-19T06:43:46.902Z,66.80
2022-12-19T06:46:16.317Z,65.97
2022-12-19T06:48:43.640Z,66.13
2022-12-19T06:51:10.722Z,60.87
2022-12-19T06:53:37.825Z,46.87
2022-12-19T06:56:05.126Z,69.87
2022-12-19T06:58:33.691Z,64.40
2022-12-19T07:01:01.527Z,63.20
2022-12-19T07:03:32.279Z,59.63
2022-12-19T07:06:02.828Z,69.57
2022-12-19T07:08:29.990Z,73.17
2022-12-19T07:10:57.561Z,64.93
2022-12-19T07:13:24.765Z,59.97
2022-12-19T07:15:52.717Z,52.07
2022-12-19T07:18:19.928Z,66.97
2022-12-19T07:20:47.148Z,62.27
2022-12-19T07:23:17.198Z,51.77
2022-12-19T07:25:44.413Z,58.97
2022-12-19T07:28:11.670Z,62.53
2022-12-19T07:30:38.830Z,67.40
2022-12-19T07:33:07.331Z,59.30
2022-12-19T07:35:37.089Z,64.33
2022-12-19T07:38:04.849Z,58.60
2022-12-19T07:40:31.984Z,66.03
2022-12-19T07:43:02.986Z,61.67
2022-12-19T07:45:30.990Z,66.10
2022-12-19T07:48:01.324Z,64.57
2022-12-19T07:50:29.082Z,54.47
2022-12-19T07:52:56.505Z,67.77
2022-12-19T07:55:23.629Z,64.67
2022-12-19T07:57:50.811Z,72.67
2022-12-19T08:00:18.090Z,65.63
2022-12-19T08:02:45.396Z,72.20
2022-12-19T08:05:12.950Z,54.53
2022-12-19T08:07:40.868Z,59.57
2022-12-19T08:10:08.543Z,66.07
2022-12-19T08:12:35.658Z,64.63
2022-12-19T08:15:02.778Z,62.77
2022-12-19T08:17:30.054Z,57.70
2022-12-19T08:19:57.546Z,63.93
2022-12-19T08:22:24.865Z,69.07
2022-12-19T08:24:52.023Z,57.90
2022-12-19T08:27:19.193Z,58.93
2022-12-19T08:29:47.469Z,62.10
2022-12-19T08:32:20.522Z,65.27
2022-12-19T08:34:48.578Z,68.47
2022-12-19T08:37:15.714Z,71.87
2022-12-19T08:39:42.797Z,61.77
2022-12-19T08:42:09.882Z,66.37
2022-12-19T08:44:36.944Z,76.57
2022-12-19T08:47:04.669Z,69.40
2022-12-19T08:49:31.912Z,88.13
2022-12-19T08:51:59.050Z,86.53
2022-12-19T08:54:27.128Z,69.77
2022-12-19T08:56:54.365Z,69.57
2022-12-19T08:59:26.804Z,62.87
2022-12-19T09:01:58.880Z,67.07
2022-12-19T09:05:57.367Z,70.93
2022-12-19T09:07:15.598Z,60.77
2022-12-19T09:09:43.142Z,86.33
2022-12-19T09:12:10.284Z,73.60
2022-12-19T09:14:37.432Z,64.50
2022-12-19T09:17:05.001Z,69.83
2022-12-19T09:19:32.508Z,66.80
2022-12-19T09:21:59.978Z,61.07
2022-12-19T09:24:27.099Z,60.50
2022-12-19T09:26:54.257Z,65.33
2022-12-19T09:29:22.201Z,64.03
2022-12-19T09:31:55.758Z,68.33
2022-12-19T09:34:37.058Z,69.20
2022-12-19T09:37:07.164Z,63.43
2022-12-19T09:39:35.326Z,63.27
2022-12-19T09:42:05.370Z,74.80
2022-12-19T09:44:32.566Z,68.40
2022-12-19T09:47:02.752Z,58.53
2022-12-19T09:49:33.350Z,72.77
2022-12-19T09:52:32.982Z,61.78
2022-12-19T09:55:13.985Z,54.73
2022-12-19T09:58:00.012Z,53.47
2022-12-19T10:00:34.260Z,53.90
2022-12-19T10:03:05.687Z,56.80
2022-12-19T10:07:06.911Z,55.87
2022-12-19T10:08:45.817Z,54.60
2022-12-19T10:12:42.331Z,53.00
2022-12-19T10:14:23.482Z,51.77
2022-12-19T10:17:24.011Z,48.50
2022-12-19T10:20:09.726Z,52.67
2022-12-19T10:22:43.834Z,54.40
2022-12-19T10:25:34.229Z,54.43
2022-12-19T10:28:17.239Z,49.13
2022-12-19T10:30:47.194Z,58.83
2022-12-19T10:33:20.651Z,65.27
2022-12-19T10:35:51.004Z,55.10
2022-12-19T10:38:18.618Z,62.27
2022-12-19T10:40:48.805Z,59.40
2022-12-19T10:43:28.634Z,57.00
2022-12-19T10:46:02.612Z,54.27
2022-12-19T10:48:31.409Z,54.33
2022-12-19T10:50:58.857Z,57.67
2022-12-19T10:53:33.713Z,55.53
2022-12-19T10:56:02.492Z,64.73
2022-12-19T10:58:37.551Z,68.33
2022-12-19T11:01:10.757Z,56.33
2022-12-19T11:03:38.820Z,60.40
2022-12-19T11:06:07.357Z,62.07
2022-12-19T11:08:36.167Z,61.77
2022-12-19T11:11:59.729Z,69.43
2022-12-19T11:18:38.888Z,57.53
2022-12-19T11:23:30.640Z,63.83
2022-12-19T11:29:33.478Z,51.83
2022-12-19T11:29:38.303Z,55.50
2022-12-19T11:30:46.075Z,55.33
2022-12-19T11:30:46.080Z,52.47
2022-12-19T11:33:47.210Z,58.47
2022-12-19T11:36:34.654Z,58.20
2022-12-19T11:39:03.796Z,52.23
2022-12-19T11:41:39.768Z,54.83
2022-12-19T11:44:17.708Z,51.77
2022-12-19T11:46:47.548Z,50.87
2022-12-19T11:49:14.642Z,51.67
2022-12-19T11:51:49.221Z,56.13
2022-12-19T11:54:22.257Z,51.73
2022-12-19T11:56:49.374Z,45.37
2022-12-19T11:59:16.546Z,49.17
2022-12-19T12:02:02.221Z,48.07
2022-12-19T12:04:48.616Z,53.97
2022-12-19T12:07:25.561Z,48.27
2022-12-19T12:16:50.110Z,50.70
2022-12-19T12:23:26.853Z,47.17
2022-12-19T12:29:18.322Z,61.53
2022-12-19T12:31:17.627Z,52.67
2022-12-19T12:31:31.782Z,54.30
2022-12-19T12:31:50.062Z,55.90
2022-12-19T12:31:57.034Z,51.83
2022-12-19T12:32:06.162Z,44.17
2022-12-19T12:35:54.204Z,48.07
2022-12-19T12:39:33.709Z,42.77
2022-12-19T12:42:04.241Z,64.03
2022-12-19T12:44:45.274Z,53.77
2022-12-19T12:47:19.079Z,51.45
2022-12-19T12:49:59.748Z,47.47
2022-12-19T12:52:41.425Z,46.13
2022-12-19T12:55:35.224Z,46.63
2022-12-19T12:58:02.304Z,48.00
2022-12-19T13:00:36.478Z,54.30
2022-12-19T13:03:19.715Z,51.97
2022-12-19T13:05:46.868Z,48.13
2022-12-19T13:08:33.001Z,52.57
2022-12-19T13:11:02.009Z,61.97
2022-12-19T13:13:47.990Z,49.17
2022-12-19T13:16:34.098Z,56.80
2022-12-19T13:19:19.704Z,52.20
2022-12-19T13:22:05.241Z,57.80
2022-12-19T13:24:40.000Z,62.30
2022-12-19T13:27:19.445Z,62.13
2022-12-19T13:30:03.714Z,62.03
2022-12-19T13:32:40.158Z,61.40
2022-12-19T13:36:38.929Z,64.53
2022-12-19T13:39:52.181Z,66.47
2022-12-19T13:40:56.228Z,73.67
2022-12-19T13:43:47.728Z,72.87
2022-12-19T13:46:42.683Z,86.13
2022-12-19T13:49:12.596Z,65.43
2022-12-19T13:51:48.635Z,69.38
2022-12-19T13:54:26.995Z,66.17
2022-12-19T13:56:55.790Z,68.47
2022-12-19T13:59:24.458Z,67.20
2022-12-19T14:01:53.406Z,64.45
2022-12-19T14:04:23.536Z,61.93
2022-12-19T14:06:59.385Z,50.53
2022-12-19T14:11:32.891Z,48.53
2022-12-19T14:14:00.208Z,51.50
2022-12-19T14:15:37.079Z,59.27
2022-12-19T14:18:43.783Z,58.70
2022-12-19T14:22:04.607Z,61.00
2022-12-19T14:24:27.731Z,65.03
2022-12-19T14:28:25.007Z,56.47
2022-12-19T14:30:27.943Z,54.83
2022-12-19T14:33:39.246Z,58.33
2022-12-19T14:36:09.760Z,49.87
2022-12-19T14:39:26.639Z,49.73
2022-12-19T14:41:27.452Z,57.23
2022-12-19T14:50:16.327Z,48.17
2022-12-19T14:53:10.759Z,49.93
2022-12-19T14:54:15.973Z,50.80
2022-12-19T14:54:39.878Z,49.47
2022-12-19T14:56:16.533Z,52.33
2022-12-19T14:58:53.487Z,59.17
2022-12-19T15:01:09.698Z,57.37
2022-12-19T15:03:43.475Z,51.83
2022-12-19T15:07:05.552Z,56.27
2022-12-19T15:10:58.484Z,52.37
2022-12-19T15:14:20.715Z,57.83
2022-12-19T15:15:09.432Z,69.07
2022-12-19T15:17:44.505Z,63.97
2022-12-19T15:20:11.773Z,55.00
2022-12-19T15:22:38.969Z,63.70
2022-12-19T15:25:06.356Z,68.03
2022-12-19T15:27:33.610Z,63.97
2022-12-19T15:30:00.691Z,53.30
2022-12-19T15:32:27.790Z,60.10
2022-12-19T15:34:55.569Z,53.17
2022-12-19T15:37:22.740Z,61.87
2022-12-19T15:39:49.977Z,61.53
2022-12-19T15:42:20.127Z,56.47
2022-12-19T15:44:47.963Z,54.83
2022-12-19T15:47:38.394Z,57.90
2022-12-19T15:50:18.005Z,60.57
2022-12-19T15:52:45.469Z,60.57
2022-12-19T15:55:16.826Z,60.10
2022-12-19T15:57:47.403Z,62.87
2022-12-19T16:00:19.764Z,61.13
2022-12-19T16:05:35.445Z,59.50
2022-12-19T16:08:03.025Z,66.90
2022-12-19T16:10:30.269Z,65.60
2022-12-19T16:12:58.189Z,62.20
2022-12-19T16:15:26.841Z,57.20
2022-12-19T16:17:54.339Z,72.57
2022-12-19T16:20:26.962Z,68.80
2022-12-19T16:22:55.299Z,59.80
2022-12-19T16:25:23.096Z,60.33
2022-12-19T16:28:00.273Z,77.90
2022-12-19T16:30:31.558Z,71.67
2022-12-19T16:32:58.777Z,62.47
2022-12-19T16:35:54.896Z,65.40
2022-12-19T16:38:14.535Z,79.47
2022-12-19T16:40:41.953Z,55.93
2022-12-19T16:43:18.131Z,60.83
2022-12-19T16:45:45.701Z,63.47
2022-12-19T16:48:20.225Z,67.77
2022-12-19T16:50:47.767Z,60.87
2022-12-19T16:53:14.969Z,54.23
2022-12-19T16:55:42.379Z,54.87
2022-12-19T16:58:13.753Z,54.43
2022-12-19T17:00:41.132Z,57.47
2022-12-19T17:03:27.872Z,65.83
2022-12-19T17:05:55.158Z,103.40
2022-12-19T17:08:22.308Z,98.13
2022-12-19T17:10:49.722Z,64.17
2022-12-19T17:13:21.103Z,61.73
2022-12-19T17:15:56.034Z,63.80
2022-12-19T17:18:27.627Z,84.73
2022-12-19T17:20:55.094Z,75.03
2022-12-19T17:23:23.318Z,70.77
2022-12-19T17:25:51.179Z,74.47
2022-12-19T17:28:19.102Z,72.30
2022-12-19T17:30:51.349Z,76.17
2022-12-19T17:33:19.244Z,71.90
2022-12-19T17:35:47.016Z,72.33
2022-12-19T17:38:15.119Z,74.93
2022-12-19T17:40:42.481Z,65.47
2022-12-19T17:43:11.858Z,66.43
2022-12-19T17:45:39.195Z,61.07
2022-12-19T17:48:07.627Z,62.33
2022-12-19T17:50:38.405Z,65.10
2022-12-19T17:53:05.939Z,65.70
2022-12-19T17:55:33.463Z,65.23
2022-12-19T17:58:00.599Z,64.50
2022-12-19T18:00:30.982Z,71.10
2022-12-19T18:03:01.023Z,71.53
2022-12-19T18:05:29.405Z,62.20
2022-12-19T18:07:57.684Z,69.73
2022-12-19T18:10:26.230Z,68.10
2022-12-19T18:12:53.916Z,64.47
2022-12-19T18:15:21.425Z,65.70
2022-12-19T18:17:50.208Z,64.10
2022-12-19T18:20:19.348Z,72.33
2022-12-19T18:22:46.944Z,75.40
2022-12-19T18:25:19.207Z,76.37
2022-12-19T18:27:46.665Z,73.57
2022-12-19T18:30:16.075Z,78.70
2022-12-19T18:32:44.653Z,62.63
2022-12-19T18:35:19.470Z,69.63
2022-12-19T18:37:47.271Z,65.17
2022-12-19T18:40:23.288Z,67.97
2022-12-19T18:42:53.383Z,62.40
2022-12-19T18:45:21.704Z,70.97
2022-12-19T18:47:53.863Z,74.20
2022-12-19T18:50:22.522Z,74.10
2022-12-19T18:52:50.195Z,70.40
2022-12-19T18:55:19.104Z,72.87
2022-12-19T18:57:47.053Z,71.50
2022-12-19T19:00:15.607Z,77.57
2022-12-19T19:02:46.747Z,73.27
2022-12-19T19:05:15.046Z,77.97
2022-12-19T19:07:42.129Z,78.03
2022-12-19T19:10:16.301Z,71.23
2022-12-19T19:12:43.362Z,75.23
2022-12-19T19:15:10.873Z,67.83
2022-12-19T19:17:38.056Z,74.43
2022-12-19T19:20:05.924Z,78.77
2022-12-19T19:22:33.085Z,71.80
2022-12-19T19:25:00.248Z,80.00
2022-12-19T19:27:27.540Z,76.50
2022-12-19T19:29:54.634Z,84.37
2022-12-19T19:32:21.861Z,80.70
2022-12-19T19:34:49.499Z,80.17
2022-12-19T19:37:17.071Z,82.73
2022-12-19T19:39:44.908Z,81.83
2022-12-19T19:42:12.113Z,72.27
2022-12-19T19:44:39.676Z,70.67
2022-12-19T19:47:06.923Z,74.57
2022-12-19T19:49:34.045Z,80.20
2022-12-19T19:52:03.087Z,64.00
2022-12-19T19:54:30.923Z,82.70
2022-12-19T19:56:58.151Z,75.10
2022-12-19T19:59:25.229Z,68.30
2022-12-19T20:01:55.461Z,69.50
2022-12-19T20:04:22.855Z,70.63
2022-12-19T20:06:51.097Z,80.73
2022-12-19T20:09:18.221Z,88.10
2022-12-19T20:11:45.373Z,84.10
2022-12-19T20:14:12.485Z,94.47
2022-12-19T20:16:39.689Z,85.47
2022-12-19T20:19:07.067Z,89.17
2022-12-19T20:21:34.279Z,93.10
2022-12-19T20:24:01.714Z,70.37
2022-12-19T20:26:28.876Z,72.33
2022-12-19T20:28:56.116Z,74.30
2022-12-19T20:31:24.628Z,103.13
2022-12-19T20:33:53.232Z,90.57
2022-12-19T20:36:20.636Z,67.27
2022-12-19T20:38:47.768Z,79.03
2022-12-19T20:41:15.175Z,78.73
2022-12-19T20:43:42.824Z,79.63
2022-12-19T20:46:11.725Z,69.37
2022-12-19T20:48:39.455Z,68.23
2022-12-19T20:51:07.702Z,79.03
2022-12-19T20:53:35.840Z,75.73
2022-12-19T20:56:03.761Z,67.43
2022-12-19T20:58:31.590Z,66.13
2022-12-19T21:01:03.781Z,62.53
2022-12-19T21:03:31.229Z,57.87
2022-12-19T21:05:59.087Z,58.17
2022-12-19T21:08:26.426Z,62.83
2022-12-19T21:10:53.722Z,64.67
2022-12-19T21:13:22.097Z,70.53
2022-12-19T21:15:56.279Z,58.70
2022-12-19T21:18:24.027Z,55.50
2022-12-19T21:20:53.589Z,61.73
2022-12-19T21:23:20.900Z,57.93
2022-12-19T21:25:48.115Z,60.17
2022-12-19T21:28:15.479Z,58.47
2022-12-19T21:30:42.658Z,62.00
2022-12-19T21:33:10.190Z,61.93
2022-12-19T21:35:38.045Z,60.97
2022-12-19T21:38:05.243Z,59.57
2022-12-19T21:40:32.412Z,71.57
2022-12-19T21:42:59.536Z,59.43
2022-12-19T21:45:26.726Z,52.20
2022-12-19T21:47:53.838Z,55.83
2022-12-19T21:50:20.920Z,62.13
2022-12-19T21:52:51.449Z,58.43
2022-12-19T21:55:23.182Z,56.80
2022-12-19T21:57:50.368Z,58.87
2022-12-19T22:00:17.632Z,52.83
2022-12-19T22:03:12.142Z,53.73
2022-12-19T22:05:35.501Z,56.33
2022-12-19T22:08:02.849Z,53.73
2022-12-19T22:10:30.070Z,53.63
2022-12-19T22:12:57.176Z,57.63
2022-12-19T22:15:24.267Z,62.17
2022-12-19T22:17:51.349Z,58.87
2022-12-19T22:20:18.596Z,55.87
2022-12-19T22:22:45.776Z,52.77
2022-12-19T22:25:12.936Z,56.03
2022-12-19T22:27:40.046Z,56.97
2022-12-19T22:30:11.172Z,59.93
2022-12-19T22:32:38.595Z,54.00
2022-12-19T22:35:06.031Z,49.17
2022-12-19T22:37:33.345Z,57.87
2022-12-19T22:40:00.692Z,58.90
2022-12-19T22:42:28.357Z,57.43
2022-12-19T22:44:55.529Z,58.47
2022-12-19T22:47:22.614Z,57.53
2022-12-19T22:49:53.173Z,60.03
2022-12-19T22:52:20.381Z,57.20
2022-12-19T22:54:48.052Z,50.27
2022-12-19T22:57:15.577Z,51.93
2022-12-19T22:59:42.895Z,53.93
2022-12-19T23:02:10.234Z,59.67
2022-12-19T23:04:37.471Z,54.53
2022-12-19T23:07:04.640Z,60.50
2022-12-19T23:09:31.723Z,49.70
2022-12-19T23:11:58.808Z,52.53
2022-12-19T23:14:25.923Z,55.23
2022-12-19T23:16:53.087Z,49.63
2022-12-19T23:19:20.235Z,55.10
2022-12-19T23:21:47.387Z,55.80
2022-12-19T23:24:14.509Z,59.10
2022-12-19T23:26:41.694Z,59.47
2022-12-19T23:29:13.242Z,64.43
2022-12-19T23:31:41.634Z,60.63
2022-12-19T23:34:08.812Z,59.23
2022-12-19T23:37:09.807Z,59.73
2022-12-19T23:39:23.105Z,57.03
2022-12-19T23:41:50.245Z,58.70
2022-12-19T23:44:17.581Z,61.30
2022-12-19T23:46:44.642Z,54.37
2022-12-19T23:49:11.764Z,59.00
2022-12-19T23:51:38.835Z,56.17
2022-12-19T23:54:06.358Z,54.23
2022-12-19T23:56:33.476Z,56.13
2022-12-19T23:59:00.569Z,60.30
